Terminal Aerodrome Forecast
Issued by NWS

Home | Current Version | Previous Version | Text Only | Print | Product List | Glossary On
Versions: 1 2 3 4 5 6 7 8 9 10 11 12 13 14 15 16 17 18 19 20 21 22 23
635
FTUS43 KDLH 211140
TAFHYR
TAF
KHYR 211140Z 2112/2212 07005KT 3SM -DZ BR VCSH OVC006
     FM211400 14006KT 3SM BR VCSH OVC005
     FM211700 19007KT 6SM BR VCSH BKN007 OVC015
     FM212000 25007KT 6SM BR VCSH BKN010 OVC020
     FM220400 24005KT 5SM BR VCSH OVC009=

USA.gov is the U.S. government's official web portal to all federal, state and local government web resources and services.